Time;durP1;ratioP1;P1;durP2;ratioP2;P2;SDS_P1;SDS_P2;PMS_P1;PMS_P2;Temp;Humidity;BMP_temperature;BMP_pressure;BME280_temperature;BME280_humidity;BME280_pressure;Samples;Min_cycle;Max_cycle;Signal;HPM_P1;HPM_P2
2024/02/24 00:00:12;;;;;;;5.38;1.48;;;;;;;-144.05;73.05;57052.75;5016176;28;20030;-82
2024/02/24 00:02:38;;;;;;;1.98;0.90;;;;;;;-144.05;73.50;57048.50;5014087;28;20026;-84
2024/02/24 00:05:05;;;;;;;2.83;1.27;;;6.20;99.90;;;-144.05;73.84;57067.59;5015385;28;20410;-84
2024/02/24 00:07:31;;;;;;;3.25;1.13;;;2.00;99.90;;;-144.05;74.12;57027.25;5012859;28;20038;-84
2024/02/24 00:09:57;;;;;;;2.80;1.17;;;;;;;-144.05;74.28;57050.63;5013468;28;20033;-84
2024/02/24 00:12:23;;;;;;;2.90;1.27;;;6.40;99.90;;;-144.05;74.28;57054.88;5013290;28;20164;-84
2024/02/24 00:14:49;;;;;;;3.60;0.98;;;;;;;-144.05;75.01;57040.00;5013506;28;20116;-82
2024/02/24 00:17:15;;;;;;;1.58;0.90;;;5.80;99.90;;;-144.05;74.78;57054.88;5015307;28;20425;-82
2024/02/24 00:19:41;;;;;;;3.33;0.90;;;;;;;-144.05;75.47;57044.25;5013419;28;20049;-82
2024/02/24 00:22:07;;;;;;;2.20;0.80;;;1.60;99.90;;;-144.05;74.66;57014.50;5023982;28;20095;-86
2024/02/24 00:24:33;;;;;;;2.53;0.98;;;;;;;-144.05;75.43;57023.00;5027880;28;20030;-86
2024/02/24 00:26:59;;;;;;;1.40;0.85;;;;;;;-144.05;75.21;57027.25;5023312;28;20060;-86
2024/02/24 00:29:25;;;;;;;4.85;1.10;;;;;;;-144.05;75.19;57027.25;5022681;28;20053;-84
2024/02/24 00:31:51;;;;;;;4.28;1.27;;;;;;;-144.05;75.65;57018.75;5022450;28;20061;-83
2024/02/24 00:34:18;;;;;;;2.45;1.10;;;;;;;-144.05;75.57;57048.50;5019953;28;20050;-81
2024/02/24 00:36:44;;;;;;;2.90;1.00;;;;;;;-144.05;76.29;57035.75;5019747;28;20495;-81
2024/02/24 00:39:10;;;;;;;3.83;0.93;;;;;;;-144.05;76.08;57067.59;5018618;28;20034;-81
2024/02/24 00:41:36;;;;;;;2.28;0.93;;;1.10;99.90;;;-144.05;75.87;57035.75;5017967;28;20029;-82
2024/02/24 00:44:03;;;;;;;3.50;1.25;;;;;;;-144.05;75.43;57008.13;5017679;28;20026;-82
2024/02/24 00:46:28;;;;;;;2.85;0.93;;;1.20;99.90;;;-144.05;75.67;57082.47;5015181;28;20034;-81
2024/02/24 00:48:59;;;;;;;3.83;0.80;;;5.10;99.90;;;-144.05;75.99;57061.22;5013352;28;20033;-81
2024/02/24 00:51:25;;;;;;;4.63;1.00;;;;;;;-144.05;75.96;57040.00;5012402;28;20026;-81
2024/02/24 00:53:52;;;;;;;5.88;1.30;;;;;;;-144.05;76.47;57031.50;5014007;28;20026;-83
2024/02/24 00:56:19;;;;;;;2.50;1.20;;;;;;;-144.05;76.38;57023.00;5016227;28;20175;-83
2024/02/24 00:58:45;;;;;;;1.13;0.80;;;;;;;-144.05;76.49;57023.00;5013898;28;20049;-81
2024/02/24 01:01:11;;;;;;;1.92;0.98;;;;;;;-144.05;76.55;57035.75;5026840;28;20130;-81
2024/02/24 01:03:37;;;;;;;3.35;0.90;;;;;;;-144.05;76.63;57052.75;5013337;28;20022;-81
2024/02/24 01:06:04;;;;;;;2.33;0.98;;;;;;;-144.05;76.79;57035.75;5018239;28;20038;-80
2024/02/24 01:08:30;;;;;;;2.83;0.88;;;;;;;-144.05;76.62;57063.34;5014886;28;20108;-83
2024/02/24 01:10:58;;;;;;;1.83;0.88;;;;;;;-144.05;77.02;57035.75;5013755;28;20597;-83
2024/02/24 01:13:24;;;;;;;2.72;1.05;;;;;;;-144.05;77.08;57061.22;5015199;28;20029;-83
2024/02/24 01:15:50;;;;;;;2.35;0.70;;;;;;;-144.05;77.21;57023.00;5013626;28;20420;-81
2024/02/24 01:18:16;;;;;;;1.80;1.00;;;;;;;-144.05;77.75;57025.13;5020298;28;20038;-83
2024/02/24 01:20:48;;;;;;;4.38;1.00;;;1.10;99.90;;;-144.05;77.81;57033.63;5014187;28;20034;-81
2024/02/24 01:23:16;;;;;;;1.50;1.17;;;5.30;99.90;;;-144.05;78.08;57008.13;5014035;28;20037;-82
2024/02/24 01:25:45;;;;;;;1.48;1.08;;;4.60;99.90;;;-144.05;77.92;57044.25;5013698;28;20052;-82
2024/02/24 01:28:11;;;;;;;4.57;1.00;;;;;;;-144.05;77.78;57006.00;5030616;28;20045;-81
2024/02/24 01:30:37;;;;;;;3.10;1.02;;;;;;;-144.05;78.17;57042.13;5020407;28;20071;-82
2024/02/24 01:33:05;;;;;;;2.72;0.85;;;;;;;-144.05;78.19;57031.50;5014022;28;20034;-82
2024/02/24 01:35:31;;;;;;;1.77;0.80;;;;;;;-144.05;78.01;57042.13;5019962;28;20133;-82
2024/02/24 01:37:57;;;;;;;3.33;0.93;;;0.10;99.90;;;-144.05;78.19;57016.63;5013827;28;20084;-82
2024/02/24 01:40:24;;;;;;;5.22;0.80;;;;;;;-144.05;78.50;57044.25;5014035;28;20038;-82
2024/02/24 01:42:50;;;;;;;5.60;1.75;;;;;;;-144.05;78.59;57014.50;5015727;28;20036;-82
2024/02/24 01:45:16;;;;;;;1.00;0.77;;;;;;;-144.05;78.27;57006.00;5014789;28;20517;-82
2024/02/24 01:47:43;;;;;;;3.45;0.98;;;4.40;99.90;;;-144.05;78.46;57073.97;5022343;28;20032;-84
2024/02/24 01:50:13;;;;;;;1.75;0.98;;;4.60;99.90;;;-144.05;78.45;57048.50;5029899;28;20026;-86
2024/02/24 01:52:42;;;;;;;2.92;0.98;;;4.70;99.90;;;-144.05;78.98;57061.22;5025761;28;20029;-83
2024/02/24 01:55:09;;;;;;;1.00;0.70;;;;;;;-144.05;78.66;57052.75;5012623;28;20140;-84
2024/02/24 01:57:45;;;;;;;2.58;1.30;;;4.30;99.90;;;-144.05;78.53;57056.97;5031964;28;20048;-80
2024/02/24 02:00:13;;;;;;;2.72;0.77;;;4.60;99.90;;;-144.05;78.02;57056.97;5021363;28;20026;-82
2024/02/24 02:02:42;;;;;;;2.80;0.80;;;4.60;99.90;;;-144.05;78.15;57067.59;5022438;28;20472;-81
2024/02/24 02:05:12;;;;;;;2.08;1.10;;;4.50;99.90;;;-144.05;78.84;57061.22;5012445;28;20029;-82
2024/02/24 02:07:41;;;;;;;1.42;0.60;;;;;;;-144.05;78.38;57044.25;5014732;28;20030;-82
2024/02/24 02:10:08;;;;;;;2.45;0.80;;;;;;;-144.05;78.05;57018.75;5012449;28;20111;-80
2024/02/24 02:12:35;;;;;;;2.13;0.95;;;;;;;-144.05;78.11;57056.97;5012128;28;20033;-81
2024/02/24 02:15:03;;;;;;;1.10;0.70;;;;;;;-144.05;77.88;56999.63;5012230;28;20467;-82
2024/02/24 02:17:30;;;;;;;1.33;0.75;;;4.60;99.90;;;-144.05;77.87;57069.72;5011443;28;20084;-82
2024/02/24 02:20:04;;;;;;;0.82;0.65;;;4.60;99.90;;;-144.05;78.62;57046.38;5011442;28;20053;-81
2024/02/24 02:22:32;;;;;;;1.48;0.80;;;4.60;99.90;;;-144.05;78.43;57097.34;5011259;28;20471;-82
2024/02/24 02:24:58;;;;;;;4.55;1.50;;;;;;;-144.05;79.07;57073.97;5015102;28;20032;-81
2024/02/24 02:27:24;;;;;;;2.47;0.93;;;;;;;-144.05;78.47;57023.00;5012952;28;20034;-80
2024/02/24 02:29:51;;;;;;;0.77;0.75;;;;;;;-144.05;77.53;57078.22;5030775;28;20564;-85
2024/02/24 02:32:17;;;;;;;1.45;0.73;;;;;;;-144.05;77.66;57044.25;5017293;28;20072;-84
2024/02/24 02:34:43;;;;;;;0.70;0.70;;;;;;;-144.05;77.80;57033.63;5014337;28;20026;-81
2024/02/24 02:37:09;;;;;;;1.38;0.60;;;;;;;-144.05;77.26;57033.63;5013800;28;20041;-84
2024/02/24 02:39:35;;;;;;;1.23;0.70;;;;;;;-144.05;78.03;57031.50;5013903;28;20025;-84
2024/02/24 02:42:02;;;;;;;1.00;0.57;;;;;;;-144.05;77.90;57073.97;5012269;28;20040;-84
2024/02/24 02:44:28;;;;;;;1.13;0.90;;;;;;;-144.05;78.16;57071.84;5028695;28;20167;-81
2024/02/24 02:46:54;;;;;;;2.15;0.50;;;;;;;-144.05;78.29;57046.38;5015677;28;20075;-83
2024/02/24 02:49:20;;;;;;;1.02;0.63;;;;;;;-144.05;78.08;57023.00;5011378;28;20193;-82
2024/02/24 02:51:46;;;;;;;1.20;0.63;;;;;;;-144.05;78.18;57050.63;5011841;28;20112;-81
2024/02/24 02:54:13;;;;;;;0.88;0.65;;;;;;;-144.05;78.56;57080.34;5027762;28;20467;-82
2024/02/24 02:56:39;;;;;;;1.92;0.80;;;;;;;-144.05;78.58;56995.38;5010648;28;20033;-81
2024/02/24 02:59:05;;;;;;;0.60;0.55;;;;;;;-144.05;77.99;57027.25;5006071;28;20099;-81
2024/02/24 03:01:31;;;;;;;2.22;1.35;;;;;;;-144.05;77.86;57052.75;5010767;28;20029;-81
2024/02/24 03:03:57;;;;;;;2.05;0.65;;;;;;;-144.05;78.50;57054.88;5011043;28;20433;-83
2024/02/24 03:06:24;;;;;;;0.60;0.50;;;;;;;-144.05;78.55;57046.38;5012125;28;20041;-82
2024/02/24 03:08:51;;;;;;;3.78;0.82;;;;;;;-144.05;78.72;57018.75;5010788;28;20092;-81
2024/02/24 03:11:17;;;;;;;3.90;0.88;;;;;;;-144.05;79.67;57042.13;5011309;28;20109;-82
2024/02/24 03:13:44;;;;;;;1.48;1.10;;;4.50;99.90;;;-144.05;79.81;57044.25;5011319;28;20080;-81
2024/02/24 03:16:10;;;;;;;1.98;0.80;;;;;;;-144.05;79.20;57033.63;5023459;28;20105;-82
2024/02/24 03:18:37;;;;;;;0.75;0.50;;;;;;;-144.05;79.40;56997.50;5013140;28;20041;-82
2024/02/24 03:21:03;;;;;;;1.63;0.80;;;;;;;-144.05;79.41;57046.38;5010987;28;20025;-83
2024/02/24 03:23:29;;;;;;;1.40;0.75;;;;;;;-144.05;79.59;57046.38;5010671;28;20030;-83
2024/02/24 03:25:56;;;;;;;0.65;0.65;;;;;;;-144.05;79.20;57025.13;5010949;28;20021;-82
2024/02/24 03:28:22;;;;;;;1.90;0.93;;;;;;;-144.05;80.02;57065.47;5010930;28;20026;-81
2024/02/24 03:30:48;;;;;;;5.03;1.42;;;;;;;-144.05;79.77;57025.13;5010929;28;20499;-82
2024/02/24 03:33:14;;;;;;;1.30;0.88;;;;;;;-144.05;79.83;57029.38;5011001;28;20126;-83
2024/02/24 03:35:41;;;;;;;0.75;0.60;;;;;;;-144.05;79.26;57067.59;5011254;28;20045;-81
2024/02/24 03:38:07;;;;;;;2.58;0.70;;;;;;;-144.05;79.45;57018.75;5012210;28;20058;-81
2024/02/24 03:40:33;;;;;;;1.45;0.90;;;;;;;-144.05;79.89;57046.38;5010594;28;20041;-81
2024/02/24 03:42:59;;;;;;;1.20;0.80;;;;;;;-144.05;79.54;57044.25;5010548;28;20552;-81
2024/02/24 03:45:26;;;;;;;0.88;0.70;;;;;;;-144.05;80.29;57067.59;5010503;28;20483;-83
2024/02/24 03:47:52;;;;;;;1.00;0.80;;;;;;;-144.05;80.15;57078.22;5012226;28;20119;-82
2024/02/24 03:50:18;;;;;;;1.73;0.82;;;;;;;-144.05;79.41;57025.13;5010981;28;20037;-81
2024/02/24 03:52:45;;;;;;;1.90;0.70;;;;;;;-144.05;79.44;57014.50;5010709;28;20036;-82
2024/02/24 03:55:12;;;;;;;2.80;1.00;;;;;;;-144.05;78.83;57061.22;5016144;28;20398;-82
2024/02/24 03:57:38;;;;;;;1.13;0.77;;;;;;;-144.05;79.10;57016.63;5009561;28;20557;-81
2024/02/24 04:00:05;;;;;;;1.60;0.75;;;;;;;-144.05;79.43;57012.38;5012388;28;20061;-82
2024/02/24 04:02:32;;;;;;;1.63;0.52;;;;;;;-144.05;78.72;57048.50;5013640;28;20021;-83
2024/02/24 04:05:00;;;;;;;1.83;0.90;;;;;;;-144.05;79.31;57052.75;5019567;28;20033;-82
2024/02/24 04:07:27;;;;;;;1.15;0.70;;;;;;;-144.05;78.56;57056.97;5016288;28;20065;-81
2024/02/24 04:09:53;;;;;;;1.13;0.77;;;;;;;-144.05;78.97;57088.84;5013574;28;20180;-81
2024/02/24 04:12:19;;;;;;;1.92;0.60;;;;;;;-144.05;78.60;57052.75;5014500;28;20395;-81
2024/02/24 04:14:45;;;;;;;0.85;0.75;;;;;;;-144.05;78.52;57050.63;5013622;28;20036;-81
2024/02/24 04:17:11;;;;;;;2.08;0.80;;;;;;;-144.05;79.07;57042.13;5012896;28;20026;-82
2024/02/24 04:19:38;;;;;;;1.58;0.75;;;;;;;-144.05;78.65;57031.50;5015040;28;20444;-81
2024/02/24 04:22:04;;;;;;;1.15;0.80;;;;;;;-144.05;78.92;57035.75;5013341;28;20116;-81
2024/02/24 04:24:30;;;;;;;2.22;1.40;;;;;;;-144.05;79.35;57052.75;5017989;28;20056;-82
2024/02/24 04:26:56;;;;;;;1.88;1.20;;;;;;;-144.05;79.13;57042.13;5012876;28;20101;-80
2024/02/24 04:29:23;;;;;;;2.25;0.93;;;;;;;-144.05;78.93;57046.38;5018902;28;20100;-82
2024/02/24 04:31:49;;;;;;;3.13;1.25;;;;;;;-144.05;79.28;57054.88;5030294;28;20482;-82
2024/02/24 04:34:15;;;;;;;1.90;1.00;;;;;;;-144.05;78.59;57056.97;5014833;28;20034;-81
2024/02/24 04:36:42;;;;;;;2.53;0.70;;;4.90;99.90;;;-144.05;78.43;57031.50;5013650;28;20395;-81
2024/02/24 04:39:09;;;;;;;1.02;0.70;;;5.00;99.90;;;-144.05;78.46;57031.50;5014966;28;20041;-85
2024/02/24 04:41:36;;;;;;;2.95;0.95;;;1.60;99.90;;;-144.05;78.16;57018.75;5030603;28;20029;-83
2024/02/24 04:44:02;;;;;;;0.88;0.63;;;;;;;-144.05;78.18;57040.00;5030186;28;20048;-84
2024/02/24 04:46:29;;;;;;;2.40;1.20;;;;;;;-144.05;78.40;57048.50;5030406;28;20105;-82
2024/02/24 04:48:55;;;;;;;1.38;0.80;;;;;;;-144.05;78.00;57027.25;5014442;28;20072;-83
2024/02/24 04:51:21;;;;;;;3.58;0.82;;;;;;;-144.05;77.94;57029.38;5014792;28;20033;-82
2024/02/24 04:53:48;;;;;;;1.13;0.70;;;;;;;-144.05;77.61;57008.13;5015672;28;20037;-82
2024/02/24 04:56:16;;;;;;;1.95;0.93;;;;;;;-144.05;77.70;57010.25;5013435;28;20132;-81
2024/02/24 04:58:44;;;;;;;1.08;0.80;;;;;;;-144.05;77.82;57018.75;5013433;28;20029;-83
2024/02/24 05:01:10;;;;;;;1.10;1.00;;;;;;;-144.05;77.51;57035.75;5014463;28;20040;-82
2024/02/24 05:03:37;;;;;;;1.85;0.80;;;;;;;-144.05;77.14;57052.75;5020426;28;20060;-83
2024/02/24 05:06:05;;;;;;;1.42;0.80;;;1.30;99.90;;;-144.05;77.45;57065.47;5018989;28;21802;-83
2024/02/24 05:08:33;;;;;;;1.48;0.70;;;;;;;-144.05;77.08;57031.50;5017684;28;20034;-85
2024/02/24 05:11:00;;;;;;;2.15;0.75;;;;;;;-144.05;76.63;57052.75;5016965;28;20088;-84
2024/02/24 05:13:26;;;;;;;1.27;0.70;;;;;;;-144.05;76.47;57059.09;5018906;28;20121;-85
2024/02/24 05:15:53;;;;;;;1.05;0.80;;;;;;;-144.05;76.77;57029.38;5016683;28;20072;-83
2024/02/24 05:18:19;;;;;;;0.80;0.75;;;;;;;-144.05;76.52;57023.00;5017555;28;20044;-83
2024/02/24 05:20:45;;;;;;;1.90;0.55;;;6.30;99.90;;;-144.05;76.28;57023.00;5015181;28;20030;-84
2024/02/24 05:23:11;;;;;;;2.35;0.55;;;;;;;-144.05;76.52;57059.09;5030920;28;20373;-84
2024/02/24 05:25:37;;;;;;;2.38;0.95;;;;;;;-144.05;76.52;57048.50;5019856;28;20068;-82
2024/02/24 05:28:04;;;;;;;1.65;0.70;;;;;;;-144.05;76.05;57027.25;5014423;28;20030;-83
2024/02/24 05:30:30;;;;;;;1.30;0.77;;;;;;;-144.05;75.79;56989.00;5015087;28;20025;-84
2024/02/24 05:32:56;;;;;;;1.77;0.70;;;;;;;-144.05;75.82;57050.63;5014653;28;20376;-81
2024/02/24 05:35:22;;;;;;;1.40;0.60;;;;;;;-144.05;75.75;57006.00;5014658;28;20030;-82
2024/02/24 05:37:54;;;;;;;1.23;0.57;;;;;;;-144.05;75.96;57008.13;5030868;28;20120;-81
2024/02/24 05:40:21;;;;;;;0.57;0.55;;;;;;;-144.05;75.30;57033.63;5012400;28;20072;-82
2024/02/24 05:42:47;;;;;;;1.13;0.60;;;;;;;-144.05;75.46;57035.75;5023942;28;20030;-84
2024/02/24 05:45:13;;;;;;;0.88;0.68;;;;;;;-144.05;75.20;57012.38;5025450;28;20026;-85
2024/02/24 05:47:39;;;;;;;1.52;0.70;;;;;;;-144.05;74.98;57027.25;5020930;28;20026;-86
2024/02/24 05:50:06;;;;;;;2.05;0.75;;;;;;;-144.05;75.15;57008.13;5006741;28;20029;-82
2024/02/24 05:52:32;;;;;;;3.17;0.90;;;2.00;99.90;;;-144.05;75.20;57048.50;5012573;28;20125;-84
2024/02/24 05:54:58;;;;;;;0.93;0.70;;;;;;;-144.05;75.40;57014.50;5012087;28;20072;-83
2024/02/24 05:57:24;;;;;;;1.50;0.75;;;;;;;-144.05;75.20;57050.63;5017166;28;20045;-83
2024/02/24 05:59:51;;;;;;;1.23;0.52;;;5.50;99.90;;;-144.05;74.88;57054.88;5023264;28;20713;-84
2024/02/24 06:02:17;;;;;;;0.93;0.57;;;;;;;-144.05;74.76;57018.75;5030723;28;20085;-84
2024/02/24 06:04:43;;;;;;;1.30;0.52;;;;;;;-144.05;75.18;57031.50;5012507;28;20096;-82
2024/02/24 06:07:09;;;;;;;1.17;0.57;;;;;;;-144.05;74.95;56997.50;5012119;28;20038;-82
2024/02/24 06:09:36;;;;;;;1.40;0.70;;;;;;;-144.05;74.59;57040.00;5022769;28;20062;-83
2024/02/24 06:12:02;;;;;;;0.60;0.50;;;;;;;-144.05;74.50;57042.13;5015059;28;20025;-83
2024/02/24 06:14:29;;;;;;;0.95;0.70;;;;;;;-144.05;75.04;57044.25;5019435;28;20025;-82
2024/02/24 06:16:55;;;;;;;1.85;0.70;;;;;;;-144.05;74.81;57027.25;5017590;28;20034;-82
2024/02/24 06:19:21;;;;;;;0.52;0.50;;;;;;;-144.05;74.60;57031.50;5018217;28;20121;-82
2024/02/24 06:21:48;;;;;;;1.65;0.68;;;;;;;-144.05;74.79;56989.00;5018840;28;20202;-81
2024/02/24 06:24:14;;;;;;;3.00;0.70;;;;;;;-144.05;74.47;57008.13;5021421;28;20021;-79
2024/02/24 06:26:40;;;;;;;1.15;0.50;;;;;;;-144.05;74.41;57035.75;5017006;28;20021;-81
2024/02/24 06:29:07;;;;;;;3.85;0.73;;;;;;;-144.05;74.78;57029.38;5014978;28;20061;-81
2024/02/24 06:31:34;;;;;;;2.33;0.70;;;;;;;-144.05;74.74;57020.88;5014945;28;20486;-79
2024/02/24 06:34:01;;;;;;;3.58;0.85;;;;;;;-144.05;74.46;57008.13;5013606;28;20124;-82
2024/02/24 06:36:26;;;;;;;0.88;0.60;;;6.70;99.90;;;-144.05;74.60;57006.00;5015690;28;20030;-83
2024/02/24 06:38:53;;;;;;;0.88;0.70;;;;;;;-144.05;74.54;57001.75;5014910;28;20112;-83
2024/02/24 06:41:19;;;;;;;2.08;0.60;;;;;;;-144.05;74.45;57042.13;5016138;28;20052;-81
2024/02/24 06:43:46;;;;;;;1.63;0.95;;;;;;;-144.05;74.11;56995.38;5015386;28;20460;-83
2024/02/24 06:46:14;;;;;;;1.60;0.82;;;;;;;-144.05;74.11;57044.25;5017932;28;20030;-79
2024/02/24 06:48:41;;;;;;;1.00;0.90;;;;;;;-144.05;74.40;57018.75;5016607;28;20032;-81
2024/02/24 06:51:07;;;;;;;0.85;0.75;;;;;;;-144.05;73.94;57031.50;5018683;28;20805;-82
2024/02/24 06:53:33;;;;;;;1.75;0.77;;;;;;;-144.05;74.20;57025.13;5017766;28;20061;-83
2024/02/24 06:56:07;;;;;;;1.75;0.77;;;5.90;99.90;;;-144.05;74.19;57035.75;5014863;28;20112;-78
2024/02/24 06:58:35;;;;;;;2.33;0.80;;;5.90;99.90;;;-144.05;73.70;57050.63;5013783;28;20029;-78
2024/02/24 07:01:05;;;;;;;1.77;0.90;;;;;;;-144.05;73.60;57027.25;5017459;28;20104;-80
2024/02/24 07:03:32;;;;;;;2.20;0.90;;;;;;;-144.05;73.58;57012.38;5013529;28;20029;-78
2024/02/24 07:06:00;;;;;;;1.98;1.00;;;6.00;99.90;;;-144.05;73.73;57010.25;5015209;28;20041;-78
2024/02/24 07:08:27;;;;;;;2.28;1.30;;;;;;;-144.05;73.49;57025.13;5032254;28;20037;-77
2024/02/24 07:10:54;;;;;;;1.17;0.82;;;;;;;-144.05;72.81;57040.00;5016381;28;20080;-76
2024/02/24 07:13:20;;;;;;;1.15;0.82;;;;;;;-144.05;73.26;57046.38;5015617;28;20049;-78
2024/02/24 07:15:46;;;;;;;1.67;0.80;;;;;;;-144.05;73.60;57014.50;5015764;28;20429;-77
2024/02/24 07:18:12;;;;;;;1.98;1.00;;;;;;;-144.05;73.38;57042.13;5015265;28;20029;-78
2024/02/24 07:20:39;;;;;;;1.42;0.77;;;;;;;-144.05;73.00;57050.63;5013936;28;20054;-80
2024/02/24 07:23:05;;;;;;;2.05;1.00;;;;;;;-144.05;73.13;57029.38;5016697;28;20511;-79
2024/02/24 07:25:31;;;;;;;3.20;1.08;;;;;;;-144.05;73.08;57035.75;5020920;28;20033;-78
2024/02/24 07:27:57;;;;;;;2.13;0.93;;;6.70;99.90;;;-144.05;72.66;57023.00;5014295;28;20034;-82
2024/02/24 07:30:24;;;;;;;1.17;0.88;;;;;;;-144.05;72.62;57006.00;5013515;28;20093;-81
2024/02/24 07:32:50;;;;;;;1.58;0.95;;;;;;;-144.05;72.85;57029.38;5024144;28;20049;-81
2024/02/24 07:35:16;;;;;;;3.00;0.90;;;;;;;-144.05;72.44;57035.75;5031573;28;20034;-80
2024/02/24 07:37:42;;;;;;;2.15;1.02;;;;;;;-144.05;72.83;57001.75;5016264;28;20022;-81
2024/02/24 07:40:09;;;;;;;1.67;0.93;;;6.10;99.90;;;-144.05;72.94;57044.25;5025014;28;20041;-77
2024/02/24 07:42:36;;;;;;;3.10;1.10;;;;;;;-144.05;72.22;57033.63;5017950;28;20078;-77
2024/02/24 07:45:03;;;;;;;1.13;0.88;;;;;;;-144.05;72.67;57027.25;5019107;28;20033;-80
2024/02/24 07:47:29;;;;;;;2.15;1.00;;;;;;;-144.05;72.50;57003.88;5018425;28;20112;-80
2024/02/24 07:49:55;;;;;;;3.83;1.23;;;;;;;-144.05;72.48;57029.38;5018576;28;20081;-79
2024/02/24 07:52:21;;;;;;;2.08;0.98;;;3.60;99.90;;;-144.05;72.07;56991.13;5018747;28;20026;-80
2024/02/24 07:54:47;;;;;;;2.30;1.10;;;;;;;-144.05;72.21;57059.09;5018143;28;20045;-77
2024/02/24 07:57:13;;;;;;;0.80;0.80;;;;;;;-144.05;72.77;57010.25;5020032;28;20064;-79
2024/02/24 07:59:40;;;;;;;1.98;0.80;;;;;;;-144.05;72.63;57033.63;4998471;28;20026;-78
2024/02/24 08:02:06;;;;;;;1.75;0.98;;;;;;;-144.05;72.24;57014.50;5012711;28;20022;-78
2024/02/24 08:04:32;;;;;;;3.55;0.93;;;;;;;-144.05;72.15;57063.34;5019233;28;20053;-77
2024/02/24 08:06:58;;;;;;;1.23;0.80;;;;;;;-144.05;72.05;57023.00;5016832;28;20034;-81
2024/02/24 08:09:25;;;;;;;1.80;0.95;;;;;;;-144.05;72.21;57016.63;5018361;28;20032;-82
2024/02/24 08:11:52;;;;;;;1.33;0.90;;;;;;;-144.05;71.92;57001.75;5019018;28;20026;-80
2024/02/24 08:14:18;;;;;;;2.00;1.08;;;;;;;-144.05;71.34;57023.00;5034299;28;20026;-78
2024/02/24 08:16:44;;;;;;;1.27;0.82;;;4.90;99.90;;;-144.05;71.15;57031.50;5018854;28;20418;-78
2024/02/24 08:19:10;;;;;;;1.83;1.27;;;;;;;-144.05;71.51;57031.50;5038272;28;20029;-79
2024/02/24 08:21:37;;;;;;;4.15;1.35;;;;;;;-144.05;71.17;56997.50;5020594;28;20061;-78
2024/02/24 08:24:10;;;;;;;2.22;1.05;;;3.60;99.90;;;-144.05;70.83;57040.00;5021518;28;20026;-80
2024/02/24 08:26:39;;;;;;;2.35;1.05;;;4.00;99.90;;;-144.05;70.23;57001.75;5022657;28;20026;-78
2024/02/24 08:29:06;;;;;;;3.17;1.10;;;6.60;99.90;;;-144.05;70.49;57010.25;5019515;28;20113;-77
2024/02/24 08:31:34;;;;;;;2.33;1.10;;;;;;;-144.05;70.30;57044.25;5018821;28;20022;-79
2024/02/24 08:34:00;;;;;;;3.08;0.93;;;7.50;99.90;;;-144.05;69.87;57029.38;5017826;28;20030;-81
2024/02/24 08:36:26;;;;;;;1.80;0.98;;;;;;;-144.05;70.03;57020.88;5018047;28;20117;-78
2024/02/24 08:38:52;;;;;;;4.43;0.80;;;;;;;-144.05;68.95;57027.25;5036861;28;20022;-78
2024/02/24 08:41:19;;;;;;;4.82;0.98;;;;;;;-144.05;68.58;57031.50;5022286;28;20033;-77
2024/02/24 08:43:45;;;;;;;2.15;1.13;;;7.10;99.90;;;-144.05;68.06;57001.75;5024670;28;20026;-78
2024/02/24 08:46:11;;;;;;;1.45;0.60;;;;;;;-144.05;68.61;57020.88;5025785;28;20029;-79
2024/02/24 08:48:37;;;;;;;3.05;1.08;;;;;;;-144.05;68.26;57008.13;5024250;28;20030;-75
2024/02/24 08:51:07;;;;;;;2.38;0.88;;;7.00;99.90;;;-144.05;68.50;57020.88;5026429;28;20018;-78
2024/02/24 08:53:33;;;;;;;0.93;0.70;;;;;;;-144.05;68.74;57023.00;5032885;28;20028;-78
2024/02/24 08:56:02;;;;;;;1.65;0.75;;;6.80;99.90;;;-144.05;68.83;57025.13;5016442;28;20030;-76
2024/02/24 08:58:31;;;;;;;2.85;0.80;;;7.60;99.90;;;-144.05;69.13;57052.75;5017312;28;20025;-78
2024/02/24 09:00:58;;;;;;;2.97;1.00;;;;;;;-144.05;69.78;57014.50;5019779;28;20026;-76
2024/02/24 09:03:24;;;;;;;1.58;1.00;;;6.90;99.90;;;-144.05;70.12;57048.50;5019219;28;20060;-79
2024/02/24 09:05:50;;;;;;;2.80;0.93;;;4.30;99.90;;;-144.05;70.23;56997.50;5017966;28;20447;-79
2024/02/24 09:08:17;;;;;;;2.10;0.90;;;;;;;-144.05;70.77;56997.50;5018415;28;20030;-79
2024/02/24 09:10:43;;;;;;;1.25;0.80;;;;;;;-144.05;71.47;57035.75;5037153;28;20030;-81
2024/02/24 09:13:09;;;;;;;1.35;0.50;;;;;;;-144.05;72.93;57023.00;5019584;28;20075;-77
2024/02/24 09:15:36;;;;;;;1.85;0.50;;;;;;;-144.05;73.45;57016.63;5016074;28;20025;-78
2024/02/24 09:18:02;;;;;;;1.60;0.70;;;;;;;-144.05;74.34;57020.88;5016717;28;20025;-80
2024/02/24 09:20:28;;;;;;;1.95;0.75;;;6.90;99.90;;;-144.05;74.27;57018.75;5016855;28;20026;-80
2024/02/24 09:22:55;;;;;;;1.77;0.90;;;;;;;-144.05;75.30;57027.25;5031671;28;20090;-76
2024/02/24 09:25:21;;;;;;;1.52;1.15;;;;;;;-144.05;74.33;56997.50;5023454;28;20503;-77
2024/02/24 09:27:48;;;;;;;1.55;0.80;;;;;;;-144.05;74.49;56980.53;5016681;28;20406;-79
2024/02/24 09:30:14;;;;;;;1.35;0.82;;;;;;;-144.05;75.18;57023.00;5017177;28;20026;-77
2024/02/24 09:32:40;;;;;;;1.38;0.85;;;;;;;-144.05;74.59;57010.25;5017939;28;20569;-79
2024/02/24 09:35:08;;;;;;;2.30;0.80;;;;;;;-144.05;75.60;57027.25;5017267;28;20033;-79
2024/02/24 09:37:37;;;;;;;1.30;0.60;;;6.40;99.90;;;-144.05;75.38;57010.25;5017590;28;20022;-79
2024/02/24 09:40:06;;;;;;;0.75;0.60;;;7.40;99.90;;;-144.05;76.24;57014.50;5017665;28;20026;-80
2024/02/24 09:42:33;;;;;;;2.72;0.55;;;6.30;99.90;;;-144.05;75.63;57029.38;5017741;28;20423;-77
2024/02/24 09:45:02;;;;;;;0.63;0.60;;;6.30;99.90;;;-144.05;75.67;57001.75;5018911;28;20077;-78
2024/02/24 09:47:29;;;;;;;3.15;0.88;;;3.90;99.90;;;-144.05;76.03;57003.88;5033220;28;20022;-77
2024/02/24 09:49:57;;;;;;;0.57;0.52;;;6.20;99.90;;;-144.05;76.22;57035.75;5017870;28;20061;-80
2024/02/24 09:52:24;;;;;;;1.27;0.85;;;4.50;99.90;;;-144.05;76.07;56997.50;5016147;28;20488;-78
2024/02/24 09:54:50;;;;;;;1.05;0.55;;;;;;;-144.05;75.63;57052.75;5017967;28;20041;-78
2024/02/24 09:57:18;;;;;;;1.38;0.68;;;3.60;99.90;;;-144.05;75.95;57003.88;5017208;28;20033;-76
2024/02/24 09:59:45;;;;;;;1.17;0.60;;;6.30;99.90;;;-144.05;76.09;57033.63;5018069;28;20022;-78
2024/02/24 10:02:12;;;;;;;0.73;0.57;;;7.00;99.90;;;-144.05;76.29;57044.25;5017995;28;20040;-79
2024/02/24 10:04:38;;;;;;;1.63;0.80;;;4.30;99.90;;;-144.05;76.01;57035.75;5032483;28;20446;-78
2024/02/24 10:07:07;;;;;;;1.23;0.70;;;6.00;99.90;;;-144.05;78.11;57056.97;5015857;28;20022;-78
2024/02/24 10:09:34;;;;;;;3.50;0.73;;;;;;;-144.05;78.27;57018.75;5021159;28;20030;-80
2024/02/24 10:12:01;;;;;;;1.45;0.60;;;5.40;99.90;;;-144.05;79.42;57046.38;5016075;28;20044;-78
2024/02/24 10:14:34;;;;;;;1.00;0.55;;;5.90;99.90;;;-144.05;78.68;57010.25;5041470;28;20032;-79
2024/02/24 10:17:00;;;;;;;0.60;0.38;;;;;;;-144.05;78.53;57018.75;5025830;28;20025;-80
2024/02/24 10:19:33;;;;;;;1.23;0.70;;;;;;;-144.05;79.23;56999.63;5026033;28;20109;-78
2024/02/24 10:22:01;;;;;;;1.10;0.60;;;5.50;99.90;;;-144.05;78.87;57029.38;5030182;28;20029;-76
2024/02/24 10:24:28;;;;;;;1.40;0.60;;;;;;;-144.05;79.21;57048.50;5033589;28;20506;-78
2024/02/24 10:26:54;;;;;;;1.08;0.60;;;;;;;-144.05;78.58;57023.00;5023109;28;20176;-79
2024/02/24 10:29:20;;;;;;;1.05;0.60;;;;;;;-144.05;78.16;57025.13;5019023;28;20399;-79
2024/02/24 10:31:50;;;;;;;1.15;1.05;;;6.00;99.90;;;-144.05;79.58;56980.53;5015516;28;20029;-79
2024/02/24 10:34:17;;;;;;;0.77;0.60;;;;;;;-144.05;78.83;57031.50;5016155;28;20483;-80
2024/02/24 10:36:45;;;;;;;1.33;0.85;;;6.00;99.90;;;-144.05;79.39;57023.00;5011081;28;20057;-77
2024/02/24 10:39:14;;;;;;;1.08;0.90;;;6.00;99.90;;;-144.05;79.38;57052.75;5014843;28;20037;-80
2024/02/24 10:41:47;;;;;;;1.33;0.93;;;;;;;-144.05;80.00;57014.50;5014395;28;20372;-79
2024/02/24 10:44:14;;;;;;;3.47;1.40;;;2.60;99.90;;;-144.05;79.35;57044.25;5015397;28;20021;-76
2024/02/24 10:46:43;;;;;;;1.60;1.20;;;4.10;99.90;;;-144.05;79.35;57016.63;5015138;28;20049;-79
2024/02/24 10:49:11;;;;;;;2.53;1.50;;;5.80;99.90;;;-144.05;80.09;57033.63;5015045;28;20092;-80
2024/02/24 10:51:38;;;;;;;1.00;0.80;;;;;;;-144.05;79.33;57035.75;5014156;28;20033;-80
2024/02/24 10:54:17;;;;;;;1.25;0.90;;;5.50;99.90;;;-144.05;80.22;57033.63;5015987;28;20026;-81
2024/02/24 10:56:46;;;;;;;1.38;0.68;;;5.40;99.90;;;-144.05;79.27;57014.50;5014624;28;20125;-79